createdAt,value
2023-01-08T00:01:58.734Z,9.00
2023-01-08T00:04:25.538Z,8.13
2023-01-08T00:06:52.721Z,8.52
2023-01-08T00:09:19.747Z,8.10
2023-01-08T00:11:49.250Z,7.60
2023-01-08T00:14:16.093Z,6.45
2023-01-08T00:16:43.354Z,9.98
2023-01-08T00:19:11.997Z,10.15
2023-01-08T00:21:39.210Z,14.27
2023-01-08T00:24:06.380Z,10.68
2023-01-08T00:26:33.800Z,9.85
2023-01-08T00:29:00.928Z,8.48
2023-01-08T00:31:28.078Z,7.97
2023-01-08T00:33:54.925Z,7.17
2023-01-08T00:36:22.120Z,8.38
2023-01-08T00:38:48.923Z,14.77
2023-01-08T00:41:16.385Z,11.77
2023-01-08T00:43:43.391Z,10.38
2023-01-08T00:46:10.949Z,9.93
2023-01-08T00:48:39.010Z,14.82
2023-01-08T00:51:08.689Z,16.17
2023-01-08T00:53:38.182Z,15.85
2023-01-08T00:56:08.472Z,14.20
2023-01-08T00:58:35.576Z,10.57
2023-01-08T01:01:03.120Z,10.10
2023-01-08T01:03:31.328Z,7.13
2023-01-08T01:06:02.631Z,9.25
2023-01-08T01:08:29.524Z,11.20
2023-01-08T01:10:56.793Z,8.57
2023-01-08T01:13:23.766Z,9.40
2023-01-08T01:16:01.046Z,7.88
2023-01-08T01:18:28.202Z,13.90
2023-01-08T01:20:55.761Z,10.15
2023-01-08T01:23:22.630Z,12.60
2023-01-08T01:25:49.805Z,10.60
2023-01-08T01:28:17.194Z,8.85
2023-01-08T01:30:44.394Z,9.70
2023-01-08T01:33:11.201Z,8.68
2023-01-08T01:35:38.299Z,7.10
2023-01-08T01:38:05.100Z,7.05
2023-01-08T01:40:32.215Z,9.13
2023-01-08T01:42:58.972Z,8.20
2023-01-08T01:45:31.467Z,6.05
2023-01-08T01:48:06.732Z,5.47
2023-01-08T01:50:41.223Z,10.32
2023-01-08T01:53:11.667Z,8.40
2023-01-08T01:55:41.855Z,6.30
2023-01-08T01:58:14.340Z,8.02
2023-01-08T02:00:42.471Z,11.10
2023-01-08T02:03:12.708Z,9.57
2023-01-08T02:06:04.720Z,9.93
2023-01-08T02:08:40.683Z,9.95
2023-01-08T02:11:11.821Z,9.13
2023-01-08T02:13:43.060Z,9.43
2023-01-08T02:16:23.003Z,9.35
2023-01-08T02:19:03.031Z,10.68
2023-01-08T02:21:37.566Z,10.13
2023-01-08T02:24:11.747Z,12.15
2023-01-08T02:26:39.252Z,9.03
2023-01-08T02:29:18.188Z,8.77
2023-01-08T02:31:46.109Z,8.38
2023-01-08T02:34:13.120Z,8.15
2023-01-08T02:36:57.136Z,8.75
2023-01-08T02:39:47.036Z,7.90
2023-01-08T02:42:23.050Z,9.20
2023-01-08T02:45:08.768Z,9.05
2023-01-08T02:47:41.699Z,10.90
2023-01-08T02:50:19.920Z,14.40
2023-01-08T02:53:00.971Z,13.87
2023-01-08T02:55:29.895Z,13.27
2023-01-08T02:57:58.988Z,9.45
2023-01-08T03:00:26.698Z,11.70
2023-01-08T03:03:10.085Z,10.55
2023-01-08T03:05:40.190Z,9.50
2023-01-08T03:08:08.563Z,8.82
2023-01-08T03:10:38.490Z,10.77
2023-01-08T03:13:21.799Z,8.93
2023-01-08T03:15:55.038Z,7.20
2023-01-08T03:18:37.517Z,6.20
2023-01-08T03:21:06.022Z,6.57
2023-01-08T03:23:35.519Z,5.90
2023-01-08T03:26:04.882Z,6.70
2023-01-08T03:28:41.883Z,6.80
2023-01-08T03:31:09.412Z,6.53
2023-01-08T03:33:38.037Z,9.77
2023-01-08T03:36:06.566Z,8.88
2023-01-08T03:38:40.557Z,9.20
2023-01-08T03:41:12.714Z,7.57
2023-01-08T03:43:40.065Z,7.50
2023-01-08T03:46:31.768Z,8.85
2023-01-08T03:49:00.470Z,13.55
2023-01-08T03:51:27.481Z,13.52
2023-01-08T03:53:58.578Z,13.30
2023-01-08T03:56:25.999Z,14.73
2023-01-08T03:58:53.149Z,11.52
2023-01-08T04:01:20.023Z,14.23
2023-01-08T04:03:47.229Z,11.93
2023-01-08T04:06:14.175Z,9.98
2023-01-08T04:08:41.301Z,9.00
2023-01-08T04:11:08.069Z,14.38
2023-01-08T04:13:35.403Z,12.90
2023-01-08T04:16:02.257Z,11.20
2023-01-08T04:18:29.373Z,8.20
2023-01-08T04:20:56.185Z,9.23
2023-01-08T04:23:23.410Z,7.63
2023-01-08T04:25:50.215Z,9.15
2023-01-08T04:28:17.308Z,7.63
2023-01-08T04:30:44.347Z,6.47
2023-01-08T04:33:11.559Z,6.57
2023-01-08T04:35:38.396Z,6.32
2023-01-08T04:38:05.770Z,6.80
2023-01-08T04:40:33.657Z,5.53
2023-01-08T04:43:00.747Z,5.70
2023-01-08T04:45:27.584Z,6.20
2023-01-08T04:47:59.210Z,6.03
2023-01-08T04:50:26.722Z,6.32
2023-01-08T04:52:54.076Z,6.18
2023-01-08T04:55:20.950Z,7.13
2023-01-08T04:57:48.187Z,5.67
2023-01-08T05:00:15.492Z,6.10
2023-01-08T05:02:42.847Z,7.40
2023-01-08T05:05:09.980Z,7.25
2023-01-08T05:07:37.098Z,12.05
2023-01-08T05:10:04.506Z,13.70
2023-01-08T05:12:31.666Z,11.25
2023-01-08T05:14:58.484Z,12.55
2023-01-08T05:17:25.638Z,12.32
2023-01-08T05:19:52.557Z,10.18
2023-01-08T05:22:19.697Z,11.27
2023-01-08T05:24:46.499Z,11.27
2023-01-08T05:27:13.692Z,9.23
2023-01-08T05:29:40.555Z,7.85
2023-01-08T05:32:15.414Z,6.88
2023-01-08T05:34:42.352Z,7.43
2023-01-08T05:37:09.640Z,7.22
2023-01-08T05:39:37.249Z,13.77
2023-01-08T05:42:04.887Z,12.00
2023-01-08T05:44:31.651Z,10.57
2023-01-08T05:46:58.857Z,11.73
2023-01-08T05:49:25.818Z,14.13
2023-01-08T05:51:52.956Z,10.55
2023-01-08T05:54:19.738Z,8.73
2023-01-08T05:56:46.868Z,8.73
2023-01-08T05:59:13.861Z,7.77
2023-01-08T06:01:40.987Z,9.95
2023-01-08T06:04:08.185Z,12.75
2023-01-08T06:06:35.488Z,14.10
2023-01-08T06:09:02.279Z,14.75
2023-01-08T06:11:29.433Z,13.20
2023-01-08T06:13:56.271Z,10.10
2023-01-08T06:16:23.439Z,8.20
2023-01-08T06:18:50.269Z,7.88
2023-01-08T06:21:17.502Z,9.48
2023-01-08T06:23:44.367Z,9.37
2023-01-08T06:26:11.644Z,9.27
2023-01-08T06:28:38.480Z,8.98
2023-01-08T06:31:05.799Z,7.80
2023-01-08T06:33:32.754Z,7.25
2023-01-08T06:36:02.409Z,8.07
2023-01-08T06:38:35.525Z,8.35
2023-01-08T06:41:06.992Z,9.57
2023-01-08T06:43:36.265Z,10.60
2023-01-08T06:46:08.130Z,12.95
2023-01-08T06:48:35.509Z,9.87
2023-01-08T06:51:03.486Z,9.77
2023-01-08T06:53:30.383Z,10.82
2023-01-08T06:55:58.819Z,9.90
2023-01-08T06:58:27.545Z,9.38
2023-01-08T07:00:54.676Z,12.63
2023-01-08T07:03:21.529Z,13.90
2023-01-08T07:05:50.826Z,13.75
2023-01-08T07:08:18.488Z,9.90
2023-01-08T07:10:46.119Z,8.98
2023-01-08T07:13:13.217Z,9.30
2023-01-08T07:15:41.728Z,8.63
2023-01-08T07:18:11.135Z,8.32
2023-01-08T07:20:38.974Z,8.63
2023-01-08T07:23:07.848Z,8.07
2023-01-08T07:25:34.979Z,9.03
2023-01-08T07:28:02.167Z,11.20
2023-01-08T07:30:30.621Z,12.15
2023-01-08T07:32:59.910Z,10.27
2023-01-08T07:35:27.425Z,9.68
2023-01-08T07:37:54.317Z,11.37
2023-01-08T07:40:21.452Z,13.85
2023-01-08T07:42:48.221Z,15.45
2023-01-08T07:45:15.321Z,16.38
2023-01-08T07:47:42.072Z,11.48
2023-01-08T07:50:09.750Z,12.67
2023-01-08T07:52:36.558Z,9.95
2023-01-08T07:55:03.877Z,10.55
2023-01-08T07:57:30.721Z,7.63
2023-01-08T07:59:57.891Z,9.60
2023-01-08T08:02:25.173Z,9.87
2023-01-08T08:04:52.853Z,10.23
2023-01-08T08:07:19.645Z,13.55
2023-01-08T08:09:46.762Z,13.23
2023-01-08T08:12:14.756Z,10.52
2023-01-08T08:14:41.889Z,10.57
2023-01-08T08:17:08.663Z,12.90
2023-01-08T08:19:35.788Z,15.30
2023-01-08T08:22:02.586Z,14.98
2023-01-08T08:24:29.866Z,11.60
2023-01-08T08:26:56.918Z,12.73
2023-01-08T08:29:24.075Z,11.48
2023-01-08T08:31:50.869Z,10.75
2023-01-08T08:34:18.055Z,9.45
2023-01-08T08:36:44.815Z,9.02
2023-01-08T08:39:11.948Z,11.70
2023-01-08T08:41:38.743Z,11.82
2023-01-08T08:44:06.151Z,13.38
2023-01-08T08:46:33.042Z,13.93
2023-01-08T08:49:00.236Z,11.35
2023-01-08T08:51:27.421Z,13.07
2023-01-08T08:53:54.539Z,13.98
2023-01-08T08:56:21.391Z,15.68
2023-01-08T08:58:50.700Z,16.65
2023-01-08T09:01:17.598Z,15.65
2023-01-08T09:03:44.797Z,12.97
2023-01-08T09:06:14.707Z,15.63
2023-01-08T09:08:41.816Z,13.70
2023-01-08T09:11:08.839Z,15.65
2023-01-08T09:13:39.023Z,13.85
2023-01-08T09:16:06.045Z,13.30
2023-01-08T09:18:33.302Z,10.70
2023-01-08T09:21:04.855Z,11.30
2023-01-08T09:23:31.978Z,10.40
2023-01-08T09:26:03.444Z,10.75
2023-01-08T09:28:31.183Z,10.50
2023-01-08T09:31:02.777Z,10.93
2023-01-08T09:33:30.689Z,9.55
2023-01-08T09:35:57.493Z,12.77
2023-01-08T09:38:24.660Z,11.20
2023-01-08T09:41:02.187Z,11.23
2023-01-08T09:43:31.738Z,11.77
2023-01-08T09:46:01.874Z,14.85
2023-01-08T09:48:32.727Z,13.93
2023-01-08T09:50:59.590Z,14.57
2023-01-08T09:53:27.505Z,11.40
2023-01-08T09:56:10.260Z,11.18
2023-01-08T09:58:40.751Z,11.80
2023-01-08T10:01:11.716Z,14.75
2023-01-08T10:03:42.749Z,12.98
2023-01-08T10:06:14.210Z,12.67
2023-01-08T10:08:42.003Z,13.82
2023-01-08T10:11:10.777Z,15.57
2023-01-08T10:13:40.621Z,14.95
2023-01-08T10:16:10.536Z,13.82
2023-01-08T10:18:38.386Z,13.33
2023-01-08T10:21:05.646Z,16.38
2023-01-08T10:23:32.767Z,14.07
2023-01-08T10:26:02.183Z,13.95
2023-01-08T10:28:36.868Z,13.07
2023-01-08T10:31:14.957Z,11.97
2023-01-08T10:33:45.192Z,13.30
2023-01-08T10:36:15.078Z,11.80
2023-01-08T10:38:50.189Z,13.20
2023-01-08T10:41:18.320Z,20.25
2023-01-08T10:43:56.605Z,15.67
2023-01-08T10:46:25.955Z,16.77
2023-01-08T10:48:59.653Z,15.43
2023-01-08T10:51:28.918Z,12.02
2023-01-08T10:54:12.292Z,11.55
2023-01-08T10:56:44.810Z,15.77
2023-01-08T10:59:23.098Z,15.88
2023-01-08T11:01:52.368Z,14.13
2023-01-08T11:04:32.727Z,13.57
2023-01-08T11:07:05.773Z,10.60
2023-01-08T11:09:36.124Z,10.40
2023-01-08T11:12:03.089Z,9.15
2023-01-08T11:14:35.226Z,11.77
2023-01-08T11:17:09.989Z,11.93
2023-01-08T11:19:37.555Z,10.30
2023-01-08T11:22:25.029Z,10.27
2023-01-08T11:24:53.577Z,12.05
2023-01-08T11:27:26.941Z,12.02
2023-01-08T11:30:02.723Z,13.45
2023-01-08T11:33:04.064Z,15.35
2023-01-08T11:35:39.635Z,12.80
2023-01-08T11:38:08.355Z,14.32
2023-01-08T11:41:05.072Z,15.60
2023-01-08T11:43:47.455Z,15.55
2023-01-08T11:46:33.470Z,17.38
2023-01-08T11:49:06.383Z,19.77
2023-01-08T11:52:10.953Z,16.55
2023-01-08T11:54:57.118Z,15.93
2023-01-08T11:57:30.300Z,13.25
2023-01-08T12:00:24.083Z,12.63
2023-01-08T12:02:56.202Z,10.30
2023-01-08T12:05:34.628Z,13.05
2023-01-08T12:08:19.695Z,11.57
2023-01-08T12:10:58.411Z,9.35
2023-01-08T12:13:47.457Z,10.10
2023-01-08T12:16:38.550Z,14.53
2023-01-08T12:19:36.936Z,15.35
2023-01-08T12:22:25.394Z,15.48
2023-01-08T12:25:17.210Z,16.85
2023-01-08T12:28:08.972Z,19.63
2023-01-08T12:30:51.845Z,21.37
2023-01-08T12:33:36.028Z,18.52
2023-01-08T12:36:10.905Z,22.25
2023-01-08T12:38:43.345Z,25.80
2023-01-08T12:41:16.332Z,27.00
2023-01-08T12:43:55.363Z,26.07
2023-01-08T12:46:24.740Z,25.50
2023-01-08T12:48:53.891Z,32.25
2023-01-08T12:51:40.802Z,22.73
2023-01-08T12:54:30.372Z,22.48
2023-01-08T12:57:20.297Z,13.37
2023-01-08T13:00:06.122Z,8.77
2023-01-08T13:02:52.114Z,9.05
2023-01-08T13:05:19.016Z,11.48
2023-01-08T13:07:58.405Z,11.23
2023-01-08T13:10:39.070Z,11.93
2023-01-08T13:13:08.879Z,10.85
2023-01-08T13:15:36.195Z,9.13
2023-01-08T13:18:15.024Z,8.68
2023-01-08T13:20:42.119Z,10.05
2023-01-08T13:23:27.753Z,8.07
2023-01-08T13:25:56.617Z,6.43
2023-01-08T13:28:41.623Z,7.00
2023-01-08T13:31:09.934Z,6.18
2023-01-08T13:33:43.360Z,6.57
2023-01-08T13:36:13.025Z,7.27
2023-01-08T13:38:41.538Z,6.40
2023-01-08T13:41:26.176Z,6.43
2023-01-08T13:44:06.322Z,7.53
2023-01-08T13:46:37.826Z,9.18
2023-01-08T13:49:07.493Z,7.43
2023-01-08T13:51:42.051Z,7.00
2023-01-08T13:54:12.229Z,6.40
2023-01-08T13:56:43.745Z,6.18
2023-01-08T13:59:23.459Z,6.28
2023-01-08T14:01:57.518Z,7.27
2023-01-08T14:04:24.929Z,6.75
2023-01-08T14:06:52.296Z,7.95
2023-01-08T14:09:25.114Z,8.23
2023-01-08T14:11:55.971Z,7.60
2023-01-08T14:14:24.148Z,8.00
2023-01-08T14:16:53.092Z,6.05
2023-01-08T14:19:22.801Z,7.90
2023-01-08T14:21:51.650Z,9.20
2023-01-08T14:24:20.291Z,8.52
2023-01-08T14:26:58.294Z,8.30
2023-01-08T14:29:28.203Z,8.23
2023-01-08T14:31:57.996Z,8.07
2023-01-08T14:34:28.070Z,6.85
2023-01-08T14:36:56.166Z,6.20
2023-01-08T14:39:34.774Z,6.30
2023-01-08T14:42:44.208Z,6.80
2023-01-08T14:45:24.067Z,5.68
2023-01-08T14:47:55.806Z,5.43
2023-01-08T14:50:26.599Z,5.97
2023-01-08T14:52:57.863Z,5.60
2023-01-08T14:55:26.109Z,6.03
2023-01-08T14:57:55.323Z,6.63
2023-01-08T15:00:26.557Z,6.53
2023-01-08T15:02:53.660Z,6.32
2023-01-08T15:05:32.825Z,6.43
2023-01-08T15:08:02.543Z,6.25
2023-01-08T15:10:38.862Z,7.45
2023-01-08T15:13:08.521Z,6.47
2023-01-08T15:15:41.709Z,6.90
2023-01-08T15:18:11.002Z,6.13
2023-01-08T15:20:38.243Z,7.43
2023-01-08T15:23:05.184Z,6.47
2023-01-08T15:25:32.343Z,7.20
2023-01-08T15:28:01.678Z,6.97
2023-01-08T15:30:35.932Z,7.70
2023-01-08T15:33:18.259Z,9.02
2023-01-08T15:35:46.121Z,8.27
2023-01-08T15:38:13.729Z,7.82
2023-01-08T15:40:41.131Z,7.03
2023-01-08T15:43:12.300Z,7.90
2023-01-08T15:45:42.216Z,7.28
2023-01-08T15:48:10.630Z,7.43
2023-01-08T15:50:43.794Z,8.18
2023-01-08T15:53:16.304Z,9.95
2023-01-08T15:55:44.574Z,8.67
2023-01-08T15:58:12.920Z,8.05
2023-01-08T16:00:41.682Z,7.85
2023-01-08T16:03:08.880Z,8.20
2023-01-08T16:05:36.946Z,7.97
2023-01-08T16:08:04.996Z,9.37
2023-01-08T16:10:32.819Z,8.43
2023-01-08T16:13:01.456Z,8.88
2023-01-08T16:15:30.937Z,8.00
2023-01-08T16:17:59.183Z,8.73
2023-01-08T16:20:26.876Z,8.30
2023-01-08T16:22:55.038Z,11.70
2023-01-08T16:25:23.854Z,9.93
2023-01-08T16:27:51.080Z,8.48
2023-01-08T16:30:18.802Z,8.20
2023-01-08T16:32:50.298Z,8.13
2023-01-08T16:35:17.530Z,7.78
2023-01-08T16:37:44.300Z,7.97
2023-01-08T16:40:12.011Z,7.85
2023-01-08T16:42:38.855Z,9.15
2023-01-08T16:45:06.169Z,9.13
2023-01-08T16:47:38.311Z,11.38
2023-01-08T16:50:06.068Z,13.50
2023-01-08T16:52:33.283Z,14.73
2023-01-08T16:55:00.130Z,17.35
2023-01-08T16:57:27.256Z,22.27
2023-01-08T16:59:54.038Z,22.00
2023-01-08T17:02:21.772Z,21.25
2023-01-08T17:04:48.702Z,19.70
2023-01-08T17:07:15.851Z,18.30
2023-01-08T17:09:42.741Z,16.87
2023-01-08T17:12:09.890Z,17.65
2023-01-08T17:14:36.892Z,15.88
2023-01-08T17:17:03.981Z,13.23
2023-01-08T17:19:30.832Z,12.32
2023-01-08T17:21:58.084Z,9.90
2023-01-08T17:24:24.933Z,9.50
2023-01-08T17:26:52.052Z,14.32
2023-01-08T17:29:18.868Z,12.10
2023-01-08T17:31:46.008Z,10.57
2023-01-08T17:34:13.926Z,12.30
2023-01-08T17:36:41.477Z,13.60
2023-01-08T17:39:08.530Z,15.13
2023-01-08T17:41:54.611Z,15.38
2023-01-08T17:44:21.782Z,13.98
2023-01-08T17:46:49.062Z,15.50
2023-01-08T17:49:16.885Z,12.00
2023-01-08T17:51:45.866Z,12.77
2023-01-08T17:54:15.297Z,17.52
2023-01-08T17:56:43.504Z,16.75
2023-01-08T17:59:14.776Z,16.17
2023-01-08T18:01:42.215Z,15.27
2023-01-08T18:04:09.048Z,13.57
2023-01-08T18:06:36.333Z,11.55
2023-01-08T18:09:04.103Z,8.95
2023-01-08T18:11:31.463Z,9.27
2023-01-08T18:14:00.305Z,9.35
2023-01-08T18:16:28.642Z,10.00
2023-01-08T18:18:56.931Z,8.38
2023-01-08T18:21:24.505Z,8.30
2023-01-08T18:23:51.466Z,9.33
2023-01-08T18:26:20.738Z,13.55
2023-01-08T18:28:47.993Z,11.32
2023-01-08T18:31:15.910Z,10.45
2023-01-08T18:33:42.886Z,11.35
2023-01-08T18:36:12.260Z,11.93
2023-01-08T18:38:41.901Z,11.18
2023-01-08T18:41:11.913Z,9.35
2023-01-08T18:43:38.702Z,9.55
2023-01-08T18:46:07.774Z,13.32
2023-01-08T18:48:35.191Z,12.83
2023-01-08T18:51:05.664Z,15.10
2023-01-08T18:53:33.568Z,22.42
2023-01-08T18:56:02.041Z,19.08
2023-01-08T18:58:29.659Z,15.40
2023-01-08T19:01:04.046Z,15.17
2023-01-08T19:03:30.979Z,14.30
2023-01-08T19:05:58.143Z,15.55
2023-01-08T19:08:25.408Z,12.38
2023-01-08T19:10:52.793Z,11.10
2023-01-08T19:13:19.627Z,10.67
2023-01-08T19:15:47.399Z,10.43
2023-01-08T19:18:14.261Z,12.10
2023-01-08T19:20:43.494Z,10.50
2023-01-08T19:23:10.333Z,10.80
2023-01-08T19:25:39.740Z,12.00
2023-01-08T19:28:07.309Z,13.75
2023-01-08T19:30:34.882Z,14.60
2023-01-08T19:33:01.777Z,14.90
2023-01-08T19:35:29.036Z,15.70
2023-01-08T19:37:55.812Z,16.60
2023-01-08T19:40:23.083Z,17.42
2023-01-08T19:43:08.556Z,16.05
2023-01-08T19:45:37.251Z,15.27
2023-01-08T19:48:04.206Z,13.15
2023-01-08T19:50:32.066Z,16.33
2023-01-08T19:52:59.013Z,15.05
2023-01-08T19:55:27.308Z,13.18
2023-01-08T19:57:55.033Z,11.20
2023-01-08T20:00:22.524Z,10.45
2023-01-08T20:02:51.372Z,10.10
2023-01-08T20:05:19.036Z,9.02
2023-01-08T20:07:45.952Z,9.32
2023-01-08T20:10:13.609Z,10.38
2023-01-08T20:12:40.477Z,11.18
2023-01-08T20:15:08.270Z,10.83
2023-01-08T20:17:35.059Z,10.15
2023-01-08T20:20:02.268Z,9.40
2023-01-08T20:22:30.485Z,10.43
2023-01-08T20:24:58.614Z,10.70
2023-01-08T20:27:25.511Z,10.13
2023-01-08T20:29:52.771Z,10.18
2023-01-08T20:32:21.016Z,11.98
2023-01-08T20:34:50.036Z,11.00
2023-01-08T20:37:16.990Z,12.45
2023-01-08T20:39:44.115Z,11.43
2023-01-08T20:42:12.268Z,10.93
2023-01-08T20:44:44.388Z,10.73
2023-01-08T20:47:11.452Z,10.82
2023-01-08T20:49:38.631Z,10.73
2023-01-08T20:52:05.508Z,11.13
2023-01-08T20:54:32.661Z,11.10
2023-01-08T20:57:00.642Z,11.05
2023-01-08T20:59:28.269Z,9.15
2023-01-08T21:01:55.408Z,9.50
2023-01-08T21:04:23.359Z,9.70
2023-01-08T21:06:50.289Z,8.27
2023-01-08T21:09:17.917Z,10.77
2023-01-08T21:11:44.843Z,12.00
2023-01-08T21:14:12.215Z,10.63
2023-01-08T21:16:40.675Z,9.57
2023-01-08T21:19:10.537Z,10.75
2023-01-08T21:21:40.322Z,10.48
2023-01-08T21:24:11.345Z,9.75
2023-01-08T21:26:39.187Z,9.48
2023-01-08T21:29:07.922Z,8.70
2023-01-08T21:31:35.763Z,9.20
2023-01-08T21:34:03.869Z,8.85
2023-01-08T21:36:32.075Z,8.38
2023-01-08T21:39:01.192Z,7.95
2023-01-08T21:41:48.652Z,8.83
2023-01-08T21:44:42.810Z,7.95
2023-01-08T21:47:12.344Z,7.43
2023-01-08T21:49:39.628Z,6.75
2023-01-08T21:52:25.087Z,7.75
2023-01-08T21:54:53.305Z,7.40
2023-01-08T21:57:20.718Z,8.05
2023-01-08T21:59:51.025Z,7.28
2023-01-08T22:02:19.689Z,9.65
2023-01-08T22:04:47.552Z,10.25
2023-01-08T22:07:15.511Z,10.03
2023-01-08T22:09:42.728Z,10.77
2023-01-08T22:12:09.584Z,14.80
2023-01-08T22:14:37.007Z,12.02
2023-01-08T22:17:05.173Z,13.65
2023-01-08T22:19:32.311Z,11.43
2023-01-08T22:21:59.063Z,12.98
2023-01-08T22:24:26.221Z,13.25
2023-01-08T22:26:52.989Z,15.65
2023-01-08T22:29:20.137Z,17.27
2023-01-08T22:31:46.906Z,17.63
2023-01-08T22:34:17.338Z,22.83
2023-01-08T22:36:51.292Z,19.27
2023-01-08T22:39:18.849Z,16.75
2023-01-08T22:41:45.639Z,12.85
2023-01-08T22:44:13.449Z,12.60
2023-01-08T22:46:40.561Z,11.50
2023-01-08T22:49:09.236Z,13.65
2023-01-08T22:51:36.121Z,12.00
2023-01-08T22:54:03.396Z,11.85
2023-01-08T22:56:30.323Z,10.23
2023-01-08T22:58:58.135Z,9.30
2023-01-08T23:01:30.197Z,10.38
2023-01-08T23:04:00.281Z,8.75
2023-01-08T23:06:29.563Z,14.85
2023-01-08T23:08:57.192Z,10.43
2023-01-08T23:11:24.717Z,9.80
2023-01-08T23:13:52.576Z,12.50
2023-01-08T23:16:23.529Z,12.13
2023-01-08T23:18:52.000Z,11.25
2023-01-08T23:21:20.984Z,13.40
2023-01-08T23:23:49.151Z,14.07
2023-01-08T23:26:20.005Z,13.80
2023-01-08T23:28:48.412Z,14.75
2023-01-08T23:31:17.844Z,14.18
2023-01-08T23:33:45.466Z,13.20
2023-01-08T23:36:18.241Z,13.55
2023-01-08T23:38:46.417Z,12.65
2023-01-08T23:41:13.424Z,11.30
2023-01-08T23:43:41.351Z,12.85
2023-01-08T23:46:08.296Z,11.30
2023-01-08T23:48:35.755Z,9.32
2023-01-08T23:51:02.586Z,12.07
2023-01-08T23:53:29.732Z,9.82
2023-01-08T23:55:56.690Z,9.88
2023-01-08T23:58:24.303Z,12.50
